createdAt,value
2023-02-12T00:02:04.883Z,84.52
2023-02-12T00:04:37.469Z,84.66
2023-02-12T00:07:08.377Z,84.61
2023-02-12T00:09:37.715Z,84.54
2023-02-12T00:12:06.590Z,84.45
2023-02-12T00:14:39.170Z,84.43
2023-02-12T00:17:09.627Z,84.34
2023-02-12T00:19:39.330Z,84.29
2023-02-12T00:22:10.480Z,84.21
2023-02-12T00:24:41.185Z,84.20
2023-02-12T00:27:09.879Z,84.34
2023-02-12T00:29:40.428Z,84.42
2023-02-12T00:32:09.295Z,84.42
2023-02-12T00:34:38.013Z,84.41
2023-02-12T00:37:07.555Z,84.33
2023-02-12T00:39:38.351Z,84.15
2023-02-12T00:42:09.380Z,84.30
2023-02-12T00:44:41.763Z,84.31
2023-02-12T00:47:11.049Z,84.37
2023-02-12T00:49:41.261Z,84.41
2023-02-12T00:52:10.533Z,84.46
2023-02-12T00:54:41.369Z,84.28
2023-02-12T00:57:13.006Z,84.35
2023-02-12T00:59:44.460Z,84.31
2023-02-12T01:02:13.406Z,84.37
2023-02-12T01:04:42.876Z,84.46
2023-02-12T01:07:12.911Z,84.62
2023-02-12T01:09:42.307Z,84.59
2023-02-12T01:12:12.552Z,84.45
2023-02-12T01:14:43.856Z,84.66
2023-02-12T01:17:15.331Z,84.70
2023-02-12T01:19:47.531Z,84.50
2023-02-12T01:22:17.819Z,84.48
2023-02-12T01:24:47.190Z,84.47
2023-02-12T01:27:19.340Z,84.39
2023-02-12T01:29:48.525Z,84.23
2023-02-12T01:32:18.599Z,84.27
2023-02-12T01:34:49.656Z,84.15
2023-02-12T01:37:24.134Z,84.34
2023-02-12T01:39:56.015Z,84.29
2023-02-12T01:42:24.866Z,84.14
2023-02-12T01:45:12.054Z,84.28
2023-02-12T01:47:42.591Z,84.32
2023-02-12T01:50:17.516Z,84.17
2023-02-12T01:52:50.719Z,83.78
2023-02-12T01:55:21.244Z,84.12
2023-02-12T01:57:51.975Z,83.96
2023-02-12T02:00:23.599Z,84.04
2023-02-12T02:02:55.703Z,84.07
2023-02-12T02:05:31.644Z,83.92
2023-02-12T02:16:36.850Z,83.87
2023-02-12T02:19:12.793Z,83.71
2023-02-12T02:21:49.692Z,83.94
2023-02-12T02:24:22.698Z,83.64
2023-02-12T02:26:59.732Z,83.56
2023-02-12T02:29:47.143Z,83.77
2023-02-12T02:32:15.949Z,83.64
2023-02-12T02:34:50.887Z,83.55
2023-02-12T02:37:24.902Z,83.34
2023-02-12T02:40:12.323Z,83.36
2023-02-12T02:42:52.744Z,83.18
2023-02-12T02:45:22.522Z,83.05
2023-02-12T02:48:00.556Z,83.16
2023-02-12T02:50:39.699Z,82.92
2023-02-12T02:53:11.278Z,82.84
2023-02-12T02:55:46.232Z,82.93
2023-02-12T02:58:21.852Z,83.01
2023-02-12T03:00:55.208Z,83.04
2023-02-12T03:03:28.202Z,83.03
2023-02-12T03:06:02.824Z,82.86
2023-02-12T03:08:48.818Z,82.77
2023-02-12T03:11:34.466Z,82.84
2023-02-12T03:14:07.803Z,82.82
2023-02-12T03:16:40.738Z,82.78
2023-02-12T03:19:16.859Z,82.87
2023-02-12T03:21:53.190Z,82.78
2023-02-12T03:24:27.975Z,82.83
2023-02-12T03:27:03.510Z,82.77
2023-02-12T03:29:34.338Z,82.72
2023-02-12T03:32:20.108Z,82.65
2023-02-12T03:35:21.733Z,82.65
2023-02-12T03:38:15.154Z,82.66
2023-02-12T03:40:50.352Z,82.67
2023-02-12T03:43:18.991Z,82.52
2023-02-12T03:45:53.447Z,82.56
2023-02-12T03:48:59.446Z,82.76
2023-02-12T03:51:35.073Z,83.01
2023-02-12T03:54:07.123Z,83.00
2023-02-12T03:56:58.051Z,83.25
2023-02-12T03:59:29.516Z,83.81
2023-02-12T04:02:00.007Z,83.70
2023-02-12T04:04:30.932Z,83.83
2023-02-12T04:07:01.215Z,83.98
2023-02-12T04:09:32.287Z,83.46
2023-02-12T04:12:01.755Z,83.03
2023-02-12T04:14:33.988Z,83.33
2023-02-12T04:17:16.499Z,83.14
2023-02-12T04:19:48.038Z,83.22
2023-02-12T04:22:31.693Z,83.03
2023-02-12T04:25:16.967Z,82.87
2023-02-12T04:28:02.595Z,82.65
2023-02-12T04:30:57.917Z,82.52
2023-02-12T04:33:31.530Z,82.65
2023-02-12T04:36:13.310Z,82.76
2023-02-12T04:38:50.810Z,82.80
2023-02-12T04:41:23.942Z,82.86
2023-02-12T04:43:54.190Z,83.18
2023-02-12T04:46:23.897Z,83.02
2023-02-12T04:48:59.884Z,82.91
2023-02-12T04:51:57.034Z,82.97
2023-02-12T04:54:28.313Z,83.35
2023-02-12T04:56:57.917Z,83.01
2023-02-12T04:59:27.769Z,83.03
2023-02-12T05:01:57.143Z,83.02
2023-02-12T05:04:27.649Z,83.04
2023-02-12T05:06:58.339Z,82.76
2023-02-12T05:09:28.349Z,82.82
2023-02-12T05:12:00.434Z,83.05
2023-02-12T05:14:29.234Z,83.18
2023-02-12T05:16:58.910Z,83.47
2023-02-12T05:19:29.386Z,83.68
2023-02-12T05:22:00.425Z,83.60
2023-02-12T05:24:31.038Z,83.62
2023-02-12T05:27:01.366Z,83.47
2023-02-12T05:29:30.867Z,83.56
2023-02-12T05:32:02.591Z,83.28
2023-02-12T05:34:33.961Z,83.14
2023-02-12T05:37:08.109Z,83.00
2023-02-12T05:39:37.649Z,82.89
2023-02-12T05:42:08.190Z,83.04
2023-02-12T05:44:37.435Z,82.86
2023-02-12T05:47:06.895Z,82.91
2023-02-12T05:49:38.901Z,82.95
2023-02-12T05:52:08.331Z,82.91
2023-02-12T05:54:40.125Z,82.64
2023-02-12T05:57:09.966Z,82.76
2023-02-12T05:59:40.939Z,82.89
2023-02-12T06:02:13.718Z,82.88
2023-02-12T06:04:48.611Z,82.89
2023-02-12T06:07:18.876Z,82.88
2023-02-12T06:09:52.237Z,82.86
2023-02-12T06:12:25.551Z,82.93
2023-02-12T06:14:55.557Z,82.79
2023-02-12T06:17:26.785Z,82.91
2023-02-12T06:19:57.273Z,82.96
2023-02-12T06:22:29.255Z,82.85
2023-02-12T06:25:03.763Z,82.96
2023-02-12T06:27:33.366Z,82.89
2023-02-12T06:30:03.439Z,82.69
2023-02-12T06:32:35.660Z,82.11
2023-02-12T06:35:05.599Z,81.48
2023-02-12T06:37:37.371Z,80.81
2023-02-12T06:40:07.612Z,80.47
2023-02-12T06:42:38.628Z,80.31
2023-02-12T06:45:09.376Z,79.18
2023-02-12T06:47:40.817Z,77.67
2023-02-12T06:50:13.394Z,77.17
2023-02-12T06:52:43.991Z,76.65
2023-02-12T06:55:13.619Z,76.61
2023-02-12T06:57:43.528Z,76.70
2023-02-12T07:00:14.333Z,76.25
2023-02-12T07:02:44.722Z,76.08
2023-02-12T07:05:16.901Z,75.93
2023-02-12T07:07:47.649Z,75.01
2023-02-12T07:10:18.261Z,75.10
2023-02-12T07:12:47.295Z,75.12
2023-02-12T07:15:16.226Z,74.58
2023-02-12T07:17:44.962Z,75.09
2023-02-12T07:20:17.917Z,73.66
2023-02-12T07:22:47.285Z,72.88
2023-02-12T07:25:18.131Z,72.37
2023-02-12T07:27:46.960Z,72.20
2023-02-12T07:30:16.502Z,71.98
2023-02-12T07:32:45.893Z,71.94
2023-02-12T07:35:16.218Z,72.50
2023-02-12T07:37:47.275Z,73.95
2023-02-12T07:40:18.141Z,74.27
2023-02-12T07:42:55.626Z,75.94
2023-02-12T07:45:24.760Z,77.09
2023-02-12T07:47:54.279Z,77.88
2023-02-12T07:50:49.818Z,78.53
2023-02-12T07:53:21.001Z,79.85
2023-02-12T07:55:51.463Z,80.35
2023-02-12T07:58:21.577Z,80.76
2023-02-12T08:00:51.115Z,80.57
2023-02-12T08:03:23.991Z,80.96
2023-02-12T08:05:56.904Z,80.73
2023-02-12T08:08:28.699Z,80.55
2023-02-12T08:10:58.712Z,80.64
2023-02-12T08:13:29.340Z,80.82
2023-02-12T08:16:03.527Z,80.98
2023-02-12T08:18:33.316Z,81.22
2023-02-12T08:21:03.683Z,81.27
2023-02-12T08:23:34.979Z,81.01
2023-02-12T08:26:11.067Z,80.77
2023-02-12T08:28:41.850Z,80.83
2023-02-12T08:31:13.825Z,80.78
2023-02-12T08:33:48.272Z,79.68
2023-02-12T08:36:20.965Z,76.65
2023-02-12T08:38:52.440Z,73.98
2023-02-12T08:41:23.659Z,72.48
2023-02-12T08:43:59.577Z,70.51
2023-02-12T08:46:31.545Z,69.28
2023-02-12T08:49:02.367Z,68.32
2023-02-12T08:51:32.791Z,68.72
2023-02-12T08:54:03.611Z,69.03
2023-02-12T08:56:35.445Z,68.41
2023-02-12T08:59:08.332Z,69.83
2023-02-12T09:01:41.510Z,69.31
2023-02-12T09:04:40.562Z,70.32
2023-02-12T09:07:17.664Z,69.19
2023-02-12T09:09:47.674Z,68.06
2023-02-12T09:12:19.444Z,69.33
2023-02-12T09:14:50.259Z,68.32
2023-02-12T09:17:27.918Z,69.08
2023-02-12T09:20:01.929Z,69.19
2023-02-12T09:22:33.714Z,69.39
2023-02-12T09:25:05.897Z,70.28
2023-02-12T09:27:36.599Z,72.05
2023-02-12T09:30:09.735Z,71.88
2023-02-12T09:32:39.036Z,72.05
2023-02-12T09:35:13.392Z,72.93
2023-02-12T09:37:45.683Z,72.19
2023-02-12T09:40:25.430Z,72.93
2023-02-12T09:43:09.194Z,74.14
2023-02-12T09:45:50.317Z,73.19
2023-02-12T09:48:34.248Z,72.53
2023-02-12T09:51:31.501Z,73.43
2023-02-12T09:54:20.584Z,72.65
2023-02-12T09:56:52.829Z,72.22
2023-02-12T09:59:34.230Z,73.30
2023-02-12T10:02:04.445Z,73.97
2023-02-12T10:04:34.882Z,74.56
2023-02-12T10:07:21.510Z,74.41
2023-02-12T10:09:51.064Z,74.34
2023-02-12T10:12:35.052Z,72.76
2023-02-12T10:15:17.951Z,73.80
2023-02-12T10:18:07.516Z,74.79
2023-02-12T10:20:44.365Z,74.57
2023-02-12T10:23:15.634Z,73.47
2023-02-12T10:25:55.638Z,74.14
2023-02-12T10:29:15.467Z,74.02
2023-02-12T10:31:58.475Z,73.34
2023-02-12T10:34:34.359Z,73.75
2023-02-12T10:37:25.299Z,74.15
2023-02-12T10:39:58.153Z,74.20
2023-02-12T10:42:41.739Z,73.94
2023-02-12T10:45:18.704Z,74.90
2023-02-12T10:47:52.429Z,75.12
2023-02-12T10:50:34.637Z,74.35
2023-02-12T10:53:05.674Z,73.66
2023-02-12T10:55:40.003Z,74.37
2023-02-12T10:58:25.111Z,75.33
2023-02-12T11:01:00.840Z,75.34
2023-02-12T11:03:42.084Z,74.75
2023-02-12T11:06:13.830Z,74.77
2023-02-12T11:08:44.004Z,75.41
2023-02-12T11:11:14.563Z,74.60
2023-02-12T11:13:50.068Z,74.28
2023-02-12T11:16:30.999Z,73.90
2023-02-12T11:19:25.238Z,72.26
2023-02-12T11:22:11.779Z,73.52
2023-02-12T11:24:44.523Z,73.03
2023-02-12T11:27:17.612Z,72.05
2023-02-12T11:30:05.120Z,72.13
2023-02-12T11:32:37.497Z,71.51
2023-02-12T11:35:34.628Z,72.04
2023-02-12T11:38:06.963Z,71.33
2023-02-12T11:40:47.854Z,71.05
2023-02-12T11:43:20.225Z,70.15
2023-02-12T11:45:53.922Z,71.33
2023-02-12T11:48:35.573Z,70.64
2023-02-12T11:51:11.009Z,70.60
2023-02-12T11:53:47.946Z,71.51
2023-02-12T11:56:17.480Z,71.38
2023-02-12T11:58:47.928Z,71.51
2023-02-12T12:01:23.273Z,71.21
2023-02-12T12:03:57.967Z,71.54
2023-02-12T12:06:36.910Z,72.21
2023-02-12T12:09:18.921Z,72.29
2023-02-12T12:11:56.232Z,72.05
2023-02-12T12:14:31.328Z,71.69
2023-02-12T12:17:25.995Z,71.12
2023-02-12T12:20:12.267Z,70.83
2023-02-12T12:22:45.274Z,70.10
2023-02-12T12:25:28.738Z,70.49
2023-02-12T12:28:04.390Z,71.03
2023-02-12T12:30:48.885Z,70.56
2023-02-12T12:33:27.922Z,70.00
2023-02-12T12:36:04.564Z,70.63
2023-02-12T12:38:52.295Z,70.73
2023-02-12T12:41:40.477Z,70.50
2023-02-12T12:44:36.450Z,69.86
2023-02-12T12:47:06.622Z,70.42
2023-02-12T12:49:50.362Z,70.53
2023-02-12T12:52:44.845Z,70.97
2023-02-12T12:55:28.363Z,71.37
2023-02-12T12:58:30.448Z,71.64
2023-02-12T13:01:06.545Z,71.27
2023-02-12T13:03:55.977Z,71.26
2023-02-12T13:06:52.569Z,71.48
2023-02-12T13:09:37.819Z,71.25
2023-02-12T13:12:16.641Z,70.63
2023-02-12T13:14:47.223Z,70.60
2023-02-12T13:17:18.827Z,70.48
2023-02-12T13:19:58.959Z,70.01
2023-02-12T13:22:36.320Z,70.11
2023-02-12T13:25:28.316Z,69.37
2023-02-12T13:28:17.065Z,69.89
2023-02-12T13:31:24.859Z,70.56
2023-02-12T13:34:03.517Z,70.29
2023-02-12T13:36:40.676Z,70.74
2023-02-12T13:39:34.294Z,70.59
2023-02-12T13:42:28.800Z,70.30
2023-02-12T13:44:59.656Z,70.57
2023-02-12T13:47:32.787Z,71.17
2023-02-12T13:50:26.449Z,71.16
2023-02-12T13:53:06.405Z,70.88
2023-02-12T13:55:53.752Z,71.52
2023-02-12T13:58:37.294Z,71.59
2023-02-12T14:01:40.931Z,71.64
2023-02-12T14:04:22.167Z,70.89
2023-02-12T14:07:14.453Z,71.26
2023-02-12T14:10:07.848Z,71.32
2023-02-12T14:12:42.697Z,71.26
2023-02-12T14:15:31.857Z,71.48
2023-02-12T14:18:06.677Z,71.47
2023-02-12T14:20:38.291Z,71.53
2023-02-12T14:23:29.094Z,71.30
2023-02-12T14:26:04.452Z,71.57
2023-02-12T14:28:53.621Z,71.42
2023-02-12T14:31:44.326Z,71.72
2023-02-12T14:34:35.879Z,71.76
2023-02-12T14:37:16.545Z,71.85
2023-02-12T14:39:49.248Z,71.94
2023-02-12T14:42:50.200Z,71.81
2023-02-12T14:45:36.578Z,71.82
2023-02-12T14:48:29.066Z,71.83
2023-02-12T15:22:40.986Z,73.44
2023-02-12T15:25:41.968Z,73.32
2023-02-12T15:28:20.646Z,73.11
2023-02-12T15:33:26.037Z,72.93
2023-02-12T15:36:03.188Z,72.99
2023-02-12T15:38:45.772Z,73.24
2023-02-12T15:41:37.585Z,73.30
2023-02-12T15:44:23.259Z,73.21
2023-02-12T15:46:59.686Z,73.55
2023-02-12T15:49:34.929Z,73.62
2023-02-12T15:52:13.327Z,73.29
2023-02-12T15:54:48.181Z,73.49
2023-02-12T15:57:22.911Z,73.55
2023-02-12T16:00:15.866Z,73.59
2023-02-12T16:02:52.945Z,73.72
2023-02-12T16:05:24.351Z,73.83
2023-02-12T16:07:57.626Z,73.91
2023-02-12T16:10:28.148Z,73.99
2023-02-12T16:13:00.153Z,74.27
2023-02-12T16:15:37.086Z,74.22
2023-02-12T16:18:26.678Z,74.28
2023-02-12T16:21:20.911Z,74.22
2023-02-12T16:23:57.035Z,74.42
2023-02-12T16:26:52.438Z,74.63
2023-02-12T16:29:42.900Z,74.47
2023-02-12T16:32:28.446Z,74.45
2023-02-12T16:35:08.147Z,74.41
2023-02-12T16:37:39.027Z,74.64
2023-02-12T16:40:18.887Z,74.56
2023-02-12T16:43:09.615Z,74.64
2023-02-12T16:45:41.437Z,74.72
2023-02-12T16:48:18.189Z,74.66
2023-02-12T16:50:54.786Z,74.84
2023-02-12T16:53:28.946Z,74.93
2023-02-12T16:56:02.991Z,75.09
2023-02-12T16:58:37.059Z,75.02
2023-02-12T17:01:10.675Z,74.96
2023-02-12T17:03:45.624Z,75.24
2023-02-12T17:06:21.300Z,75.45
2023-02-12T17:08:53.595Z,75.23
2023-02-12T17:11:27.862Z,75.41
2023-02-12T17:13:58.781Z,75.31
2023-02-12T17:16:32.331Z,75.70
2023-02-12T17:19:06.381Z,75.23
2023-02-12T17:21:45.677Z,75.30
2023-02-12T17:24:28.929Z,75.38
2023-02-12T17:27:06.813Z,75.59
2023-02-12T17:29:48.676Z,75.62
2023-02-12T17:32:24.284Z,75.61
2023-02-12T17:35:11.143Z,75.50
2023-02-12T17:37:48.959Z,75.61
2023-02-12T17:40:45.394Z,75.69
2023-02-12T17:43:23.741Z,75.77
2023-02-12T17:46:04.180Z,75.91
2023-02-12T17:48:41.098Z,75.92
2023-02-12T17:52:10.653Z,75.88
2023-02-12T17:54:51.374Z,75.97
2023-02-12T17:57:23.264Z,76.09
2023-02-12T17:59:55.940Z,76.23
2023-02-12T18:02:28.433Z,76.12
2023-02-12T18:05:05.297Z,76.07
2023-02-12T18:07:39.363Z,76.15
2023-02-12T18:10:11.749Z,76.30
2023-02-12T18:12:49.407Z,76.32
2023-02-12T18:15:23.026Z,76.55
2023-02-12T18:17:54.037Z,76.55
2023-02-12T18:20:31.482Z,76.66
2023-02-12T18:23:05.349Z,76.69
2023-02-12T18:25:58.739Z,76.70
2023-02-12T18:28:40.156Z,76.82
2023-02-12T18:31:14.813Z,76.87
2023-02-12T18:33:47.011Z,76.84
2023-02-12T18:36:21.179Z,77.07
2023-02-12T18:38:54.106Z,77.05
2023-02-12T18:41:27.819Z,77.17
2023-02-12T18:44:00.058Z,77.17
2023-02-12T18:46:39.765Z,77.22
2023-02-12T18:49:22.645Z,77.27
2023-02-12T18:51:58.391Z,77.38
2023-02-12T18:54:29.333Z,77.53
2023-02-12T18:57:09.147Z,77.61
2023-02-12T18:59:45.348Z,77.70
2023-02-12T19:02:26.911Z,77.88
2023-02-12T19:05:01.676Z,77.89
2023-02-12T19:07:40.981Z,77.86
2023-02-12T19:10:16.393Z,77.94
2023-02-12T19:12:49.270Z,78.01
2023-02-12T19:15:22.196Z,78.36
2023-02-12T19:17:59.000Z,78.45
2023-02-12T19:20:31.926Z,78.03
2023-02-12T19:23:06.640Z,78.28
2023-02-12T19:25:59.244Z,78.60
2023-02-12T19:28:32.057Z,78.57
2023-02-12T19:31:16.330Z,78.69
2023-02-12T19:33:50.481Z,78.60
2023-02-12T19:36:24.779Z,78.76
2023-02-12T19:38:58.040Z,78.98
2023-02-12T19:41:41.977Z,78.89
2023-02-12T19:44:18.925Z,78.81
2023-02-12T19:46:51.538Z,78.91
2023-02-12T19:49:24.393Z,79.16
2023-02-12T19:52:00.563Z,79.28
2023-02-12T19:54:37.122Z,79.22
2023-02-12T19:57:15.672Z,79.25
2023-02-12T19:59:55.090Z,79.38
2023-02-12T20:02:27.103Z,79.50
2023-02-12T20:04:59.550Z,79.19
2023-02-12T20:07:32.839Z,79.63
2023-02-12T20:10:04.993Z,79.56
2023-02-12T20:12:41.393Z,79.77
2023-02-12T20:15:14.254Z,79.78
2023-02-12T20:17:48.583Z,79.83
2023-02-12T20:20:22.930Z,79.63
2023-02-12T20:22:58.337Z,79.85
2023-02-12T20:25:32.910Z,80.12
2023-02-12T20:28:08.141Z,79.96
2023-02-12T20:30:48.209Z,80.10
2023-02-12T20:33:23.044Z,80.48
2023-02-12T20:36:00.004Z,80.54
2023-02-12T20:38:32.806Z,80.90
2023-02-12T20:41:13.647Z,80.20
2023-02-12T20:43:48.676Z,80.42
2023-02-12T20:46:23.241Z,80.52
2023-02-12T20:48:56.698Z,80.47
2023-02-12T20:52:12.366Z,80.62
2023-02-12T20:54:48.837Z,80.62
2023-02-12T20:57:24.738Z,81.04
2023-02-12T20:59:56.522Z,80.74
2023-02-12T21:02:29.421Z,81.07
2023-02-12T21:05:00.815Z,81.32
2023-02-12T21:07:33.155Z,81.15
2023-02-12T21:10:05.112Z,81.27
2023-02-12T21:12:37.434Z,81.08
2023-02-12T21:15:10.642Z,81.37
2023-02-12T21:17:50.301Z,81.32
2023-02-12T21:20:24.425Z,81.39
2023-02-12T21:23:00.911Z,81.97
2023-02-12T21:25:31.941Z,81.73
2023-02-12T21:28:04.237Z,81.77
2023-02-12T21:30:38.612Z,82.01
2023-02-12T21:33:13.394Z,81.72
2023-02-12T21:35:50.239Z,81.63
2023-02-12T21:38:24.508Z,81.57
2023-02-12T21:41:03.713Z,81.77
2023-02-12T21:43:37.047Z,81.82
2023-02-12T21:46:10.115Z,81.68
2023-02-12T21:48:41.896Z,81.70
2023-02-12T21:52:02.595Z,81.78
2023-02-12T21:54:33.558Z,81.89
2023-02-12T21:57:10.078Z,81.88
2023-02-12T21:59:41.067Z,81.86
2023-02-12T22:02:11.783Z,82.14
2023-02-12T22:04:43.665Z,81.94
2023-02-12T22:07:13.192Z,82.03
2023-02-12T22:09:44.099Z,82.43
2023-02-12T22:12:19.628Z,82.18
2023-02-12T22:14:50.325Z,82.34
2023-02-12T22:17:20.222Z,82.45
2023-02-12T22:19:49.835Z,82.35
2023-02-12T22:22:20.884Z,82.49
2023-02-12T22:24:50.879Z,82.79
2023-02-12T22:27:24.338Z,83.32
2023-02-12T22:29:55.043Z,83.36
2023-02-12T22:32:28.470Z,83.07
2023-02-12T22:34:58.349Z,83.31
2023-02-12T22:37:29.289Z,83.24
2023-02-12T22:39:59.918Z,83.54
2023-02-12T22:42:32.164Z,83.35
2023-02-12T22:45:02.279Z,83.53
2023-02-12T22:47:35.213Z,83.49
2023-02-12T22:50:07.457Z,83.51
2023-02-12T22:52:37.412Z,83.58
2023-02-12T22:55:09.195Z,83.58
2023-02-12T22:57:38.840Z,83.55
2023-02-12T23:00:10.930Z,83.64
2023-02-12T23:02:43.971Z,83.82
2023-02-12T23:05:14.156Z,84.01
2023-02-12T23:07:45.925Z,83.89
2023-02-12T23:10:15.883Z,83.81
2023-02-12T23:12:47.389Z,83.95
2023-02-12T23:15:18.634Z,84.06
2023-02-12T23:17:48.312Z,84.02
2023-02-12T23:20:21.137Z,83.90
2023-02-12T23:22:50.647Z,83.73
2023-02-12T23:25:20.794Z,84.22
2023-02-12T23:27:51.708Z,84.14
2023-02-12T23:30:22.484Z,83.97
2023-02-12T23:32:53.620Z,84.11
2023-02-12T23:35:24.907Z,84.26
2023-02-12T23:37:57.109Z,84.22
2023-02-12T23:40:26.349Z,84.29
2023-02-12T23:42:57.435Z,84.41
2023-02-12T23:45:28.810Z,84.23
2023-02-12T23:47:59.385Z,84.26
2023-02-12T23:50:29.105Z,84.03
2023-02-12T23:53:01.776Z,84.30
2023-02-12T23:55:37.343Z,84.32
2023-02-12T23:58:08.878Z,84.47
